Terminal Aerodrome Forecast
Issued by NWS

Home | Current Version | Previous Version | Text Only | Print | Product List | Glossary On
Versions: 1 2 3 4 5 6 7 8 9 10 11 12 13
030
FTUS45 KVEF 310520
TAFVGT
TAF
KVGT 310520Z 3106/0106 34006KT P6SM FEW150 BKN200
     FM310800 02012KT P6SM FEW150
     FM311300 01008KT P6SM FEW150
     FM311800 04007KT P6SM FEW150=

USA.gov is the U.S. government's official web portal to all federal, state and local government web resources and services.